createdAt,value
2023-02-21T00:32:25.799Z,24.45
2023-02-21T00:33:25.770Z,24.45
2023-02-21T00:34:25.800Z,24.44
2023-02-21T00:35:25.716Z,24.45
2023-02-21T00:36:25.716Z,24.44
2023-02-21T00:37:25.703Z,24.44
2023-02-21T00:38:26.655Z,24.45
2023-02-21T00:39:25.691Z,24.45
2023-02-21T00:40:25.651Z,24.45
2023-02-21T00:41:25.623Z,24.45
2023-02-21T00:42:25.630Z,24.44
2023-02-21T00:43:25.603Z,24.44
2023-02-21T00:44:25.593Z,24.44
2023-02-21T00:45:25.564Z,24.44
2023-02-21T00:46:25.554Z,24.44
2023-02-21T00:47:25.532Z,24.43
2023-02-21T00:48:25.527Z,24.43
2023-02-21T00:49:25.530Z,24.43
2023-02-21T00:50:25.500Z,24.43
2023-02-21T00:51:25.503Z,24.43
2023-02-21T00:52:25.466Z,24.43
2023-02-21T00:53:25.474Z,24.43
2023-02-21T00:54:25.470Z,24.43
2023-02-21T00:55:25.446Z,24.42
2023-02-21T00:56:25.422Z,24.42
2023-02-21T00:57:25.416Z,24.43
2023-02-21T00:58:25.420Z,24.41
2023-02-21T00:59:25.390Z,24.43
2023-02-21T01:00:25.360Z,24.42
2023-02-21T01:01:25.395Z,24.42
2023-02-21T01:02:25.335Z,24.42
2023-02-21T01:03:25.317Z,24.43
2023-02-21T01:04:25.330Z,24.43
2023-02-21T01:05:25.273Z,24.42
2023-02-21T01:06:25.263Z,24.43
2023-02-21T01:07:25.252Z,24.42
2023-02-21T01:08:25.233Z,24.41
2023-02-21T01:09:25.244Z,24.41
2023-02-21T01:10:25.198Z,24.42
2023-02-21T01:11:25.206Z,24.42
2023-02-21T01:12:25.197Z,24.42
2023-02-21T01:13:25.177Z,24.42
2023-02-21T01:14:26.827Z,24.41
2023-02-21T01:15:25.151Z,24.40
2023-02-21T01:16:25.118Z,24.41
2023-02-21T01:17:25.108Z,24.41
2023-02-21T01:18:25.106Z,24.41
2023-02-21T01:19:25.114Z,24.42
2023-02-21T01:20:25.117Z,24.41
2023-02-21T01:21:25.051Z,24.40
2023-02-21T01:22:25.049Z,24.41
2023-02-21T01:23:25.036Z,24.41
2023-02-21T01:24:25.039Z,24.41
2023-02-21T01:25:25.038Z,24.41
2023-02-21T01:26:24.994Z,24.42
2023-02-21T01:27:24.976Z,24.41
2023-02-21T01:28:24.959Z,24.41
2023-02-21T01:29:24.960Z,24.40
2023-02-21T01:30:25.024Z,24.40
2023-02-21T01:31:24.968Z,24.41
2023-02-21T01:32:24.950Z,24.40
2023-02-21T01:33:24.896Z,24.39
2023-02-21T01:34:24.854Z,24.39
2023-02-21T01:35:24.862Z,24.40
2023-02-21T01:36:24.857Z,24.39
2023-02-21T01:37:24.840Z,24.39
2023-02-21T01:38:24.819Z,24.39
2023-02-21T01:39:24.812Z,24.39
2023-02-21T01:40:24.824Z,24.39
2023-02-21T01:41:24.799Z,24.39
2023-02-21T01:42:24.795Z,24.39
2023-02-21T01:43:24.748Z,24.38
2023-02-21T01:44:24.746Z,24.38
2023-02-21T01:45:24.755Z,24.38
2023-02-21T01:46:24.751Z,24.38
2023-02-21T01:47:24.694Z,24.38
2023-02-21T01:48:24.690Z,24.38
2023-02-21T01:49:24.659Z,24.38
2023-02-21T01:50:24.646Z,24.38
2023-02-21T01:51:24.615Z,24.38
2023-02-21T01:52:24.592Z,24.38
2023-02-21T01:53:24.580Z,24.37
2023-02-21T01:54:24.553Z,24.37
2023-02-21T01:55:24.549Z,24.37
2023-02-21T01:56:24.515Z,24.38
2023-02-21T01:57:24.513Z,24.38
2023-02-21T01:58:24.485Z,24.37
2023-02-21T01:59:24.458Z,24.37
2023-02-21T02:00:24.445Z,24.37
2023-02-21T02:01:24.413Z,24.36
2023-02-21T02:02:24.413Z,24.36
2023-02-21T02:03:24.372Z,24.36
2023-02-21T02:04:24.388Z,24.37
2023-02-21T02:05:24.347Z,24.37
2023-02-21T02:06:24.357Z,24.36
2023-02-21T02:07:24.307Z,24.35
2023-02-21T02:08:24.282Z,24.35
2023-02-21T02:09:24.279Z,24.36
2023-02-21T02:10:24.292Z,24.36
2023-02-21T02:11:24.229Z,24.36
2023-02-21T02:12:24.214Z,24.36
2023-02-21T02:13:24.225Z,24.35
2023-02-21T02:14:24.178Z,24.35
2023-02-21T02:15:24.189Z,24.35
2023-02-21T02:16:24.142Z,24.35
2023-02-21T02:17:24.127Z,24.35
2023-02-21T02:18:24.119Z,24.35
2023-02-21T02:19:24.151Z,24.35
2023-02-21T02:20:24.080Z,24.34
2023-02-21T02:21:24.059Z,24.34
2023-02-21T02:22:24.048Z,24.34
2023-02-21T02:23:24.008Z,24.35
2023-02-21T02:24:23.986Z,24.35
2023-02-21T02:25:24.001Z,24.35
2023-02-21T02:26:23.950Z,24.35
2023-02-21T02:27:23.954Z,24.35
2023-02-21T02:28:23.910Z,24.35
2023-02-21T02:29:23.888Z,24.35
2023-02-21T02:30:23.905Z,24.35
2023-02-21T02:31:23.936Z,24.35
2023-02-21T02:32:23.846Z,24.34
2023-02-21T02:33:23.819Z,24.34
2023-02-21T02:34:23.783Z,24.34
2023-02-21T02:35:23.792Z,24.34
2023-02-21T02:36:23.778Z,24.34
2023-02-21T02:37:23.767Z,24.34
2023-02-21T02:38:23.712Z,24.34
2023-02-21T02:39:23.678Z,24.33
2023-02-21T02:40:23.673Z,24.33
2023-02-21T02:41:23.650Z,24.35
2023-02-21T02:42:23.636Z,24.36
2023-02-21T02:43:23.604Z,24.35
2023-02-21T02:44:23.610Z,24.33
2023-02-21T02:45:23.579Z,24.32
2023-02-21T02:46:23.631Z,24.31
2023-02-21T02:47:23.579Z,24.28
2023-02-21T02:48:23.541Z,24.26
2023-02-21T02:49:23.550Z,24.23
2023-02-21T02:50:23.508Z,24.21
2023-02-21T02:51:23.514Z,24.17
2023-02-21T02:52:23.480Z,24.16
2023-02-21T02:53:23.492Z,24.15
2023-02-21T02:54:23.469Z,24.13
2023-02-21T02:55:23.458Z,24.12
2023-02-21T02:56:23.476Z,24.11
2023-02-21T02:57:23.470Z,24.09
2023-02-21T02:58:23.431Z,24.08
2023-02-21T02:59:23.438Z,24.08
2023-02-21T03:00:23.413Z,24.06
2023-02-21T03:01:23.463Z,24.05
2023-02-21T03:02:23.409Z,24.05
2023-02-21T03:03:23.499Z,24.04
2023-02-21T03:04:23.380Z,24.02
2023-02-21T03:05:23.565Z,24.01
2023-02-21T03:06:23.387Z,24.00
2023-02-21T03:07:23.360Z,24.00
2023-02-21T03:08:23.328Z,23.99
2023-02-21T03:09:23.335Z,23.98
2023-02-21T03:10:23.315Z,23.98
2023-02-21T03:11:23.319Z,23.98
2023-02-21T03:12:23.290Z,23.97
2023-02-21T03:13:23.261Z,23.96
2023-02-21T03:14:23.249Z,23.94
2023-02-21T03:15:23.231Z,23.93
2023-02-21T03:16:23.309Z,23.93
2023-02-21T03:17:23.206Z,23.93
2023-02-21T03:18:23.174Z,23.92
2023-02-21T03:19:23.170Z,23.91
2023-02-21T03:20:23.166Z,23.92
2023-02-21T03:21:23.142Z,23.90
2023-02-21T03:22:23.146Z,23.90
2023-02-21T03:23:23.105Z,23.88
2023-02-21T03:24:23.095Z,23.88
2023-02-21T03:25:23.087Z,23.87
2023-02-21T03:26:23.090Z,23.87
2023-02-21T03:27:23.092Z,23.87
2023-02-21T03:28:23.060Z,23.86
2023-02-21T03:29:23.069Z,23.86
2023-02-21T03:30:23.106Z,23.85
2023-02-21T03:31:23.047Z,23.84
2023-02-21T03:32:23.089Z,23.84
2023-02-21T03:33:22.999Z,23.83
2023-02-21T03:34:22.982Z,23.83
2023-02-21T03:35:22.985Z,23.83
2023-02-21T03:36:22.977Z,23.81
2023-02-21T03:37:22.962Z,23.81
2023-02-21T03:38:22.940Z,23.81
2023-02-21T03:39:22.912Z,23.80
2023-02-21T03:40:22.897Z,23.80
2023-02-21T03:41:22.901Z,23.80
2023-02-21T03:42:22.894Z,23.79
2023-02-21T03:43:22.864Z,23.78
2023-02-21T03:44:22.868Z,23.77
2023-02-21T03:45:22.854Z,23.77
2023-02-21T03:46:22.870Z,23.76
2023-02-21T03:47:22.853Z,23.76
2023-02-21T03:48:31.311Z,23.76
2023-02-21T03:49:23.795Z,23.75
2023-02-21T03:50:22.807Z,23.75
2023-02-21T03:51:22.803Z,23.73
2023-02-21T03:52:22.792Z,23.73
2023-02-21T03:53:22.800Z,23.73
2023-02-21T03:54:22.783Z,23.73
2023-02-21T03:55:22.750Z,23.73
2023-02-21T03:56:26.122Z,23.73
2023-02-21T03:57:23.771Z,23.72
2023-02-21T03:58:22.741Z,23.72
2023-02-21T03:59:22.778Z,23.72
2023-02-21T04:00:22.728Z,23.72
2023-02-21T04:01:22.786Z,23.72
2023-02-21T04:02:22.769Z,23.70
2023-02-21T04:03:22.725Z,23.70
2023-02-21T04:04:22.708Z,23.70
2023-02-21T04:05:22.697Z,23.69
2023-02-21T04:06:22.703Z,23.70
2023-02-21T04:07:22.728Z,23.69
2023-02-21T04:08:22.679Z,23.70
2023-02-21T04:09:22.640Z,23.68
2023-02-21T04:10:22.644Z,23.67
2023-02-21T04:11:22.618Z,23.67
2023-02-21T04:12:22.626Z,23.66
2023-02-21T04:13:22.574Z,23.66
2023-02-21T04:14:22.587Z,23.65
2023-02-21T04:15:22.597Z,23.65
2023-02-21T04:16:22.572Z,23.65
2023-02-21T04:17:22.554Z,23.65
2023-02-21T04:18:22.558Z,23.64
2023-02-21T04:19:22.509Z,23.63
2023-02-21T04:20:22.539Z,23.63
2023-02-21T04:21:22.496Z,23.63
2023-02-21T04:22:22.527Z,23.61
2023-02-21T04:23:22.469Z,23.61
2023-02-21T04:24:22.453Z,23.61
2023-02-21T04:25:22.444Z,23.60
2023-02-21T04:26:22.450Z,23.60
2023-02-21T04:27:22.405Z,23.62
2023-02-21T04:28:22.416Z,23.62
2023-02-21T04:29:22.405Z,23.60
2023-02-21T04:30:22.372Z,23.60
2023-02-21T04:31:22.371Z,23.60
2023-02-21T04:32:22.579Z,23.59
2023-02-21T04:33:22.359Z,23.59
2023-02-21T04:34:22.331Z,23.58
2023-02-21T04:35:22.333Z,23.58
2023-02-21T04:36:22.303Z,23.57
2023-02-21T04:37:22.305Z,23.57
2023-02-21T04:38:22.301Z,23.56
2023-02-21T04:39:22.270Z,23.55
2023-02-21T04:40:22.239Z,23.55
2023-02-21T04:41:22.215Z,23.54
2023-02-21T04:42:22.227Z,23.54
2023-02-21T04:43:22.223Z,23.53
2023-02-21T04:44:22.221Z,23.52
2023-02-21T04:45:22.219Z,23.52
2023-02-21T04:46:22.207Z,23.53
2023-02-21T04:47:22.165Z,23.54
2023-02-21T05:32:46.493Z,23.42
2023-02-21T05:37:21.911Z,23.39
2023-02-21T05:38:21.912Z,23.39
2023-02-21T05:39:21.927Z,23.40
2023-02-21T05:40:21.930Z,23.39
2023-02-21T05:41:21.897Z,23.38
2023-02-21T05:42:21.894Z,23.39
2023-02-21T05:43:21.888Z,23.39
2023-02-21T05:44:21.884Z,23.39
2023-02-21T05:45:21.878Z,23.38
2023-02-21T05:46:21.932Z,23.37
2023-02-21T05:47:21.866Z,23.37
2023-02-21T05:48:21.869Z,23.37
2023-02-21T05:49:21.887Z,23.37
2023-02-21T05:50:21.867Z,23.37
2023-02-21T05:51:21.872Z,23.36
2023-02-21T05:52:21.842Z,23.36
2023-02-21T05:53:21.847Z,23.36
2023-02-21T05:54:21.823Z,23.36
2023-02-21T05:55:21.820Z,23.36
2023-02-21T05:56:21.828Z,23.37
2023-02-21T05:57:21.834Z,23.36
2023-02-21T05:58:21.793Z,23.35
2023-02-21T05:59:21.821Z,23.36
2023-02-21T06:00:21.778Z,23.35
2023-02-21T06:01:21.780Z,23.36
2023-02-21T06:02:21.808Z,23.36
2023-02-21T06:03:21.822Z,23.37
2023-02-21T06:04:21.768Z,23.36
2023-02-21T06:05:21.762Z,23.36
2023-02-21T06:06:21.764Z,23.35
2023-02-21T06:07:21.747Z,23.36
2023-02-21T06:08:21.741Z,23.35
2023-02-21T06:09:21.750Z,23.36
2023-02-21T06:10:21.755Z,23.36
2023-02-21T06:11:21.739Z,23.36
2023-02-21T06:12:21.734Z,23.35
2023-02-21T06:13:21.724Z,23.36
2023-02-21T06:14:21.716Z,23.34
2023-02-21T06:15:21.753Z,23.35
2023-02-21T06:16:21.702Z,23.35
2023-02-21T06:17:21.719Z,23.35
2023-02-21T06:18:21.693Z,23.34
2023-02-21T06:19:21.684Z,23.36
2023-02-21T06:20:21.699Z,23.36
2023-02-21T06:21:21.699Z,23.36
2023-02-21T06:22:21.670Z,23.35
2023-02-21T06:23:21.668Z,23.35
2023-02-21T06:24:21.694Z,23.35
2023-02-21T06:25:21.704Z,23.35
2023-02-21T06:26:21.676Z,23.34
2023-02-21T06:27:21.646Z,23.33
2023-02-21T06:28:21.670Z,23.33
2023-02-21T06:29:21.682Z,23.32
2023-02-21T06:30:23.172Z,23.30
2023-02-21T06:31:21.688Z,23.32
2023-02-21T06:32:21.667Z,23.34
2023-02-21T06:33:21.667Z,23.34
2023-02-21T06:34:21.645Z,23.36
2023-02-21T06:35:21.799Z,23.36
2023-02-21T06:36:21.652Z,23.38
2023-02-21T06:37:21.652Z,23.40
2023-02-21T06:38:21.651Z,23.40
2023-02-21T06:39:21.652Z,23.40
2023-02-21T06:40:21.655Z,23.36
2023-02-21T06:41:21.646Z,23.31
2023-02-21T06:42:21.689Z,23.22
2023-02-21T06:43:21.642Z,23.12
2023-02-21T06:44:21.630Z,23.03
2023-02-21T06:45:21.659Z,23.00
2023-02-21T06:46:21.629Z,23.00
2023-02-21T06:47:21.643Z,23.01
2023-02-21T06:48:21.644Z,23.04
2023-02-21T06:49:21.597Z,23.08
2023-02-21T06:50:21.612Z,23.12
2023-02-21T06:51:21.592Z,23.15
2023-02-21T06:52:21.615Z,23.20
2023-02-21T06:53:21.605Z,23.26
2023-02-21T06:54:21.576Z,23.31
2023-02-21T06:55:23.089Z,23.36
2023-02-21T06:56:21.588Z,23.40
2023-02-21T06:57:21.538Z,23.45
2023-02-21T06:58:21.538Z,23.51
2023-02-21T06:59:21.520Z,23.56
2023-02-21T07:00:21.519Z,23.61
2023-02-21T07:01:21.517Z,23.65
2023-02-21T07:02:21.603Z,23.68
2023-02-21T07:03:21.457Z,23.72
2023-02-21T07:04:21.538Z,23.76
2023-02-21T07:05:21.459Z,23.80
2023-02-21T07:06:21.623Z,23.85
2023-02-21T07:07:21.421Z,23.88
2023-02-21T07:08:21.410Z,23.91
2023-02-21T07:09:21.418Z,23.93
2023-02-21T07:10:21.410Z,23.96
2023-02-21T07:11:21.441Z,23.99
2023-02-21T07:12:21.384Z,24.02
2023-02-21T07:13:22.584Z,24.04
2023-02-21T07:14:21.331Z,24.06
2023-02-21T07:15:21.314Z,24.09
2023-02-21T07:16:21.321Z,24.14
2023-02-21T07:17:21.261Z,24.15
2023-02-21T07:18:21.268Z,24.17
2023-02-21T07:19:21.292Z,24.20
2023-02-21T07:20:21.245Z,24.22
2023-02-21T07:21:21.222Z,24.26
2023-02-21T07:22:21.175Z,24.28
2023-02-21T07:23:21.151Z,24.31
2023-02-21T07:24:21.170Z,24.32
2023-02-21T07:25:21.135Z,24.34
2023-02-21T07:26:21.132Z,24.36
2023-02-21T07:27:21.108Z,24.39
2023-02-21T07:28:21.071Z,24.42
2023-02-21T07:29:21.077Z,24.45
2023-02-21T07:30:21.065Z,24.47
2023-02-21T07:31:21.425Z,24.48
2023-02-21T07:32:21.002Z,24.50
2023-02-21T07:33:20.964Z,24.52
2023-02-21T09:08:20.207Z,24.85
2023-02-21T09:09:20.147Z,24.86
2023-02-21T09:10:20.137Z,24.89
2023-02-21T09:11:20.104Z,24.91
2023-02-21T09:12:20.109Z,24.92
2023-02-21T09:13:20.132Z,24.95
2023-02-21T09:14:20.078Z,24.98
2023-02-21T09:15:20.082Z,24.99
2023-02-21T09:16:20.124Z,25.01
2023-02-21T09:17:20.040Z,25.01
2023-02-21T09:18:20.096Z,25.02
2023-02-21T09:19:19.998Z,25.03
2023-02-21T09:20:20.002Z,25.05
2023-02-21T09:21:19.953Z,25.06
2023-02-21T09:22:19.916Z,25.09
2023-02-21T09:23:19.911Z,25.09
2023-02-21T09:24:19.896Z,25.09
2023-02-21T09:25:19.878Z,25.12
2023-02-21T09:26:19.919Z,25.13
2023-02-21T09:27:19.823Z,25.14
2023-02-21T09:28:19.849Z,25.15
2023-02-21T09:29:19.827Z,25.17
2023-02-21T09:30:19.857Z,25.18
2023-02-21T09:31:19.793Z,25.21
2023-02-21T09:32:19.732Z,25.22
2023-02-21T09:33:19.692Z,25.20
2023-02-21T09:34:19.721Z,25.18
2023-02-21T09:35:19.680Z,25.16
2023-02-21T09:36:19.639Z,25.14
2023-02-21T09:37:19.634Z,25.11
2023-02-21T09:38:19.605Z,25.09
2023-02-21T09:39:19.606Z,25.07
2023-02-21T09:40:19.591Z,25.05
2023-02-21T09:41:19.555Z,25.03
2023-02-21T09:42:19.541Z,25.01
2023-02-21T09:43:19.519Z,24.99
2023-02-21T09:44:19.487Z,24.98
2023-02-21T09:45:19.484Z,24.95
2023-02-21T09:46:19.467Z,24.94
2023-02-21T09:47:19.431Z,24.93
2023-02-21T09:48:19.419Z,24.92
2023-02-21T09:49:19.417Z,24.91
2023-02-21T09:50:19.380Z,24.86
2023-02-21T09:51:19.381Z,24.84
2023-02-21T09:52:19.343Z,24.85
2023-02-21T09:53:19.329Z,24.86
2023-02-21T09:54:19.353Z,24.87
2023-02-21T09:55:19.342Z,24.86
2023-02-21T09:56:19.350Z,24.86
2023-02-21T09:57:19.309Z,24.86
2023-02-21T09:58:19.265Z,24.85
2023-02-21T09:59:19.268Z,24.86
2023-02-21T10:00:19.291Z,24.88
2023-02-21T10:01:19.279Z,24.89
2023-02-21T10:02:19.231Z,24.93
2023-02-21T10:03:19.206Z,24.95
2023-02-21T10:04:19.221Z,24.96
2023-02-21T10:05:19.236Z,24.98
2023-02-21T10:06:19.162Z,25.01
2023-02-21T10:07:19.158Z,25.03
2023-02-21T10:08:19.166Z,25.06
2023-02-21T10:09:19.125Z,25.08
2023-02-21T10:10:19.150Z,25.09
2023-02-21T10:11:21.252Z,25.12
2023-02-21T10:12:19.504Z,25.13
2023-02-21T10:13:19.270Z,25.15
2023-02-21T10:14:19.181Z,25.18
2023-02-21T10:15:19.011Z,25.18
2023-02-21T10:16:19.062Z,25.19
2023-02-21T10:17:19.007Z,25.20
2023-02-21T10:18:19.646Z,25.20
2023-02-21T10:19:18.941Z,25.19
2023-02-21T10:20:18.945Z,25.20
2023-02-21T10:21:18.908Z,25.20
2023-02-21T10:22:18.908Z,25.21
2023-02-21T10:23:18.911Z,25.20
2023-02-21T10:24:18.914Z,25.20
2023-02-21T10:25:18.915Z,25.20
2023-02-21T10:26:18.883Z,25.20
2023-02-21T10:27:18.906Z,25.21
2023-02-21T10:28:18.808Z,25.22
2023-02-21T10:29:18.921Z,25.22
2023-02-21T10:30:20.033Z,25.23
2023-02-21T10:31:21.444Z,25.23
2023-02-21T10:32:20.844Z,25.23
2023-02-21T10:33:20.643Z,25.23
2023-02-21T10:34:19.578Z,25.22
2023-02-21T10:35:19.930Z,25.22
2023-02-21T10:36:22.082Z,25.23
2023-02-21T10:37:20.884Z,25.24
2023-02-21T10:38:18.925Z,25.26
2023-02-21T10:39:19.745Z,25.27
2023-02-21T10:40:19.621Z,25.27
2023-02-21T10:41:20.511Z,25.27
2023-02-21T10:42:19.179Z,25.26
2023-02-21T10:43:18.751Z,25.26
2023-02-21T10:44:18.706Z,25.27
2023-02-21T10:45:18.736Z,25.28
2023-02-21T10:46:18.804Z,25.29
2023-02-21T10:47:18.617Z,25.27
2023-02-21T10:48:18.644Z,25.20
2023-02-21T10:49:18.661Z,25.14
2023-02-21T10:50:18.728Z,25.12
2023-02-21T10:51:19.388Z,25.11
2023-02-21T10:52:19.879Z,25.11
2023-02-21T10:53:19.608Z,25.12
2023-02-21T10:54:25.163Z,25.13
2023-02-21T10:55:32.184Z,25.13
2023-02-21T10:56:37.113Z,25.13
2023-02-21T10:57:24.746Z,25.12
2023-02-21T10:58:28.525Z,25.15
2023-02-21T10:59:26.985Z,25.15
2023-02-21T11:00:30.719Z,25.15
2023-02-21T11:01:21.178Z,25.17
2023-02-21T11:03:20.978Z,25.21
2023-02-21T11:04:22.247Z,25.23
2023-02-21T11:05:20.882Z,25.24
2023-02-21T11:06:19.687Z,25.26
2023-02-21T11:07:20.928Z,25.28
2023-02-21T11:08:21.231Z,25.31
2023-02-21T11:09:21.642Z,25.31
2023-02-21T11:10:22.696Z,25.32
2023-02-21T11:11:20.987Z,25.34
2023-02-21T11:12:23.635Z,25.36
2023-02-21T11:13:21.811Z,25.37
2023-02-21T11:14:24.307Z,25.38
2023-02-21T11:15:23.557Z,25.38
2023-02-21T11:16:19.363Z,25.37
2023-02-21T11:17:23.312Z,25.39
2023-02-21T11:18:20.597Z,25.39
2023-02-21T11:19:20.985Z,25.41
2023-02-21T11:20:20.089Z,25.43
2023-02-21T11:21:20.153Z,25.43
2023-02-21T11:22:21.646Z,25.44
2023-02-21T11:23:20.963Z,25.44
2023-02-21T11:24:21.873Z,25.46
2023-02-21T11:25:22.067Z,25.46
2023-02-21T11:26:24.989Z,25.48
2023-02-21T11:27:21.328Z,25.48
2023-02-21T11:28:22.352Z,25.48
2023-02-21T11:29:18.479Z,25.47
2023-02-21T11:30:20.062Z,25.50
2023-02-21T11:31:22.198Z,25.51
2023-02-21T11:32:22.755Z,25.51
2023-02-21T11:33:19.173Z,25.52
2023-02-21T11:34:18.794Z,25.53
2023-02-21T11:35:29.772Z,25.56
2023-02-21T11:36:20.746Z,25.55
2023-02-21T11:37:20.845Z,25.58
2023-02-21T11:38:21.450Z,25.59
2023-02-21T11:39:21.193Z,25.61
2023-02-21T11:40:19.179Z,25.62
2023-02-21T11:41:19.371Z,25.61
2023-02-21T11:42:18.311Z,25.63
2023-02-21T11:43:18.236Z,25.64
2023-02-21T11:44:18.837Z,25.64
2023-02-21T11:45:17.939Z,25.65
2023-02-21T11:46:18.090Z,25.65
2023-02-21T11:47:18.330Z,25.68
2023-02-21T11:48:19.273Z,25.68
2023-02-21T11:49:18.346Z,25.69
2023-02-21T11:50:18.227Z,25.70
2023-02-21T11:51:18.469Z,25.71
2023-02-21T11:52:17.943Z,25.72
2023-02-21T11:53:17.840Z,25.73
2023-02-21T11:54:17.885Z,25.74
2023-02-21T11:55:17.968Z,25.74
2023-02-21T11:56:18.029Z,25.74
2023-02-21T11:57:18.056Z,25.75
2023-02-21T11:58:17.990Z,25.76
2023-02-21T11:59:18.405Z,25.76
2023-02-21T12:00:17.913Z,25.78
2023-02-21T12:01:18.756Z,25.79
2023-02-21T12:02:18.019Z,25.79
2023-02-21T12:03:17.874Z,25.79
2023-02-21T12:04:17.865Z,25.79
2023-02-21T12:05:17.869Z,25.78
2023-02-21T12:06:19.611Z,25.77
2023-02-21T12:07:17.868Z,25.78
2023-02-21T12:08:18.190Z,25.77
2023-02-21T12:09:18.441Z,25.78
2023-02-21T12:10:17.648Z,25.79
2023-02-21T12:11:18.140Z,25.79
2023-02-21T12:33:17.399Z,26.07
2023-02-21T12:34:17.455Z,26.09
2023-02-21T12:35:17.521Z,26.10
2023-02-21T12:36:17.530Z,26.12
2023-02-21T12:37:17.561Z,26.14
2023-02-21T12:38:17.594Z,26.15
2023-02-21T12:39:17.617Z,26.14
2023-02-21T12:40:17.683Z,26.14
2023-02-21T12:50:17.967Z,26.18
2023-02-21T12:51:18.058Z,26.18
2023-02-21T12:52:18.034Z,26.17
2023-02-21T12:53:18.091Z,26.16
2023-02-21T12:54:18.100Z,26.16
2023-02-21T12:55:18.154Z,26.17
2023-02-21T12:56:18.303Z,26.16
2023-02-21T12:57:18.126Z,26.16
2023-02-21T12:58:18.107Z,26.17
2023-02-21T12:59:18.068Z,26.20
2023-02-21T13:00:18.027Z,26.21
2023-02-21T13:01:21.073Z,26.22
2023-02-21T13:02:17.986Z,26.23
2023-02-21T13:03:17.964Z,26.25
2023-02-21T13:04:17.901Z,26.27
2023-02-21T13:05:17.888Z,26.30
2023-02-21T13:06:17.866Z,26.32
2023-02-21T13:07:17.828Z,26.35
2023-02-21T13:08:17.811Z,26.37
2023-02-21T13:09:17.776Z,26.37
2023-02-21T13:10:17.749Z,26.40
2023-02-21T13:11:17.755Z,26.41
2023-02-21T13:12:17.705Z,26.42
2023-02-21T13:13:17.695Z,26.44
2023-02-21T13:14:17.673Z,26.44
2023-02-21T13:15:17.632Z,26.46
2023-02-21T13:16:17.629Z,26.48
2023-02-21T13:17:17.542Z,26.49
2023-02-21T13:18:17.541Z,26.52
2023-02-21T13:19:17.528Z,26.53
2023-02-21T13:20:17.447Z,26.56
2023-02-21T13:21:17.517Z,26.58
2023-02-21T13:22:17.391Z,26.59
2023-02-21T13:23:17.387Z,26.61
2023-02-21T13:24:17.323Z,26.61
2023-02-21T13:25:17.304Z,26.62
2023-02-21T13:26:17.269Z,26.63
2023-02-21T13:27:17.235Z,26.65
2023-02-21T13:28:17.230Z,26.65
2023-02-21T13:29:17.181Z,26.66
2023-02-21T13:30:17.172Z,26.67
2023-02-21T13:31:17.452Z,26.69
2023-02-21T13:32:17.232Z,26.69
2023-02-21T13:33:17.074Z,26.68
2023-02-21T13:34:17.010Z,26.67
2023-02-21T13:35:16.991Z,26.66
2023-02-21T13:36:16.919Z,26.64
2023-02-21T13:37:16.890Z,26.63
2023-02-21T13:38:16.888Z,26.61
2023-02-21T13:39:16.844Z,26.62
2023-02-21T13:40:16.793Z,26.61
2023-02-21T13:41:17.239Z,26.62
2023-02-21T13:42:16.754Z,26.62
2023-02-21T13:43:16.710Z,26.62
2023-02-21T13:44:16.724Z,26.62
2023-02-21T13:45:16.668Z,26.62
2023-02-21T13:46:16.755Z,26.62
2023-02-21T13:47:16.638Z,26.61
2023-02-21T13:48:16.563Z,26.62
2023-02-21T13:49:16.540Z,26.60
2023-02-21T13:50:16.500Z,26.62
2023-02-21T13:51:16.658Z,26.62
2023-02-21T13:52:16.433Z,26.63
2023-02-21T13:53:16.430Z,26.62
2023-02-21T13:54:16.373Z,26.62
2023-02-21T13:55:16.371Z,26.62
2023-02-21T13:56:16.346Z,26.62
2023-02-21T13:57:16.352Z,26.61
2023-02-21T13:58:16.319Z,26.62
2023-02-21T13:59:16.270Z,26.62
2023-02-21T14:00:16.250Z,26.62
2023-02-21T14:01:16.175Z,26.61
2023-02-21T14:02:16.147Z,26.60
2023-02-21T14:03:16.119Z,26.62
2023-02-21T14:04:16.113Z,26.63
2023-02-21T14:05:16.053Z,26.62
2023-02-21T14:06:16.234Z,26.63
2023-02-21T14:07:15.990Z,26.62
2023-02-21T14:08:15.958Z,26.62
2023-02-21T14:09:15.956Z,26.63
2023-02-21T14:10:15.927Z,26.63
2023-02-21T14:11:15.881Z,26.62
2023-02-21T14:12:15.864Z,26.62
2023-02-21T14:13:15.825Z,26.62
2023-02-21T14:14:15.819Z,26.61
2023-02-21T14:15:15.793Z,26.61
2023-02-21T14:16:16.167Z,26.61
2023-02-21T14:17:15.712Z,26.61
2023-02-21T14:18:15.690Z,26.61
2023-02-21T14:19:15.705Z,26.61
2023-02-21T14:20:15.645Z,26.61
2023-02-21T14:21:15.927Z,26.60
2023-02-21T14:22:15.631Z,26.60
2023-02-21T14:23:15.594Z,26.61
2023-02-21T14:24:15.555Z,26.61
2023-02-21T14:25:15.540Z,26.60
2023-02-21T14:26:15.708Z,26.60
2023-02-21T14:27:15.489Z,26.60
2023-02-21T14:28:15.429Z,26.60
2023-02-21T14:29:15.451Z,26.59
2023-02-21T14:30:15.519Z,26.60
2023-02-21T14:31:15.794Z,26.60
2023-02-21T14:32:15.412Z,26.61
2023-02-21T14:33:16.037Z,26.62
2023-02-21T14:34:15.305Z,26.62
2023-02-21T14:35:15.312Z,26.63
2023-02-21T14:36:15.308Z,26.64
2023-02-21T14:37:15.245Z,26.65
2023-02-21T14:38:15.199Z,26.65
2023-02-21T14:39:15.186Z,26.66
2023-02-21T14:40:15.172Z,26.66
2023-02-21T14:41:15.414Z,26.65
2023-02-21T14:42:15.183Z,26.65
2023-02-21T14:43:15.244Z,26.65
2023-02-21T14:44:15.256Z,26.65
2023-02-21T14:45:15.320Z,26.65
2023-02-21T14:46:15.305Z,26.64
2023-02-21T14:47:15.337Z,26.63
2023-02-21T14:48:15.364Z,26.61
2023-02-21T14:49:17.323Z,26.60
2023-02-21T14:50:15.373Z,26.60
2023-02-21T14:51:15.642Z,26.58
2023-02-21T14:52:15.298Z,26.57
2023-02-21T14:53:15.255Z,26.56
2023-02-21T14:54:15.246Z,26.56
2023-02-21T14:55:15.220Z,26.55
2023-02-21T14:56:15.196Z,26.55
2023-02-21T14:57:15.138Z,26.54
2023-02-21T14:58:15.098Z,26.53
2023-02-21T14:59:15.070Z,26.52
2023-02-21T15:00:15.062Z,26.52
2023-02-21T15:01:15.429Z,26.51
2023-02-21T15:02:14.977Z,26.52
2023-02-21T15:03:14.970Z,26.52
2023-02-21T15:04:15.017Z,26.52
2023-02-21T15:05:14.903Z,26.52
2023-02-21T15:06:14.883Z,26.50
2023-02-21T15:07:14.832Z,26.50
2023-02-21T15:08:14.795Z,26.48
2023-02-21T15:09:14.801Z,26.46
2023-02-21T19:02:09.402Z,25.31
2023-02-21T19:03:09.385Z,25.31
2023-02-21T19:04:09.383Z,25.30
2023-02-21T19:05:09.347Z,25.29
2023-02-21T19:06:09.354Z,25.29
2023-02-21T19:07:09.308Z,25.28
2023-02-21T19:08:09.288Z,25.28
2023-02-21T19:09:09.263Z,25.28
2023-02-21T19:10:09.304Z,25.28
2023-02-21T19:11:09.278Z,25.27
2023-02-21T19:12:09.241Z,25.26
2023-02-21T19:13:09.245Z,25.25
2023-02-21T19:14:09.221Z,25.25
2023-02-21T19:15:09.169Z,25.25
2023-02-21T19:16:09.209Z,25.24
2023-02-21T19:17:09.122Z,25.24
2023-02-21T19:18:09.127Z,25.24
2023-02-21T19:19:09.094Z,25.23
2023-02-21T19:20:09.087Z,25.22
2023-02-21T19:21:09.096Z,25.20
2023-02-21T19:22:09.054Z,25.19
2023-02-21T19:23:09.023Z,25.19
2023-02-21T19:24:09.024Z,25.21
2023-02-21T19:25:08.989Z,25.21
2023-02-21T19:26:09.001Z,25.21
2023-02-21T19:27:09.008Z,25.20
2023-02-21T19:28:08.930Z,25.20
2023-02-21T19:29:08.932Z,25.20
2023-02-21T19:30:08.978Z,25.19
2023-02-21T19:31:08.919Z,25.18
2023-02-21T19:32:08.960Z,25.19
2023-02-21T19:33:08.849Z,25.18
2023-02-21T19:34:08.832Z,25.18
2023-02-21T19:35:08.787Z,25.17
2023-02-21T19:36:08.800Z,25.17
2023-02-21T19:37:08.765Z,25.17
2023-02-21T19:38:08.780Z,25.16
2023-02-21T19:39:08.710Z,25.16
2023-02-21T19:40:08.723Z,25.16
2023-02-21T19:41:08.700Z,25.16
2023-02-21T19:42:08.662Z,25.15
2023-02-21T19:43:08.626Z,25.15
2023-02-21T19:44:08.611Z,25.14
2023-02-21T19:45:08.584Z,25.15
2023-02-21T19:46:08.654Z,25.15
2023-02-21T19:47:08.541Z,25.14
2023-02-21T19:48:08.514Z,25.13
2023-02-21T19:49:08.502Z,25.12
2023-02-21T19:50:08.460Z,25.12
2023-02-21T19:51:08.468Z,25.13
2023-02-21T19:52:08.441Z,25.13
2023-02-21T19:53:08.435Z,25.12
2023-02-21T19:54:08.401Z,25.12
2023-02-21T19:55:08.398Z,25.12
2023-02-21T19:56:08.383Z,25.12
2023-02-21T19:57:08.376Z,25.11
2023-02-21T19:58:08.365Z,25.11
2023-02-21T19:59:08.349Z,25.11
2023-02-21T20:00:08.310Z,25.09
2023-02-21T20:01:08.364Z,25.09
2023-02-21T20:02:08.270Z,25.10
2023-02-21T20:03:08.247Z,25.09
2023-02-21T20:04:08.281Z,25.09
2023-02-21T20:05:08.233Z,25.09
2023-02-21T20:06:08.208Z,25.08
2023-02-21T20:07:08.372Z,25.08
2023-02-21T20:08:08.178Z,25.08
2023-02-21T20:09:08.137Z,25.09